sensor_id;sensor_type;location;lat;lon;timestamp;temperature;humidity
69543;SHT31;56762;49.494;11.768;2023-06-10T00:01:08;15.45;76.61
69543;SHT31;56762;49.494;11.768;2023-06-10T00:03:36;15.44;76.78
69543;SHT31;56762;49.494;11.768;2023-06-10T00:06:04;15.45;76.73
69543;SHT31;56762;49.494;11.768;2023-06-10T00:08:32;15.42;76.79
69543;SHT31;56762;49.494;11.768;2023-06-10T00:11:00;15.41;76.62
69543;SHT31;56762;49.494;11.768;2023-06-10T00:13:29;15.41;76.80
69543;SHT31;56762;49.494;11.768;2023-06-10T00:15:57;15.37;76.66
69543;SHT31;56762;49.494;11.768;2023-06-10T00:18:25;15.34;76.70
69543;SHT31;56762;49.494;11.768;2023-06-10T00:20:53;15.30;76.80
69543;SHT31;56762;49.494;11.768;2023-06-10T00:23:21;15.30;77.16
69543;SHT31;56762;49.494;11.768;2023-06-10T00:25:51;15.27;77.46
69543;SHT31;56762;49.494;11.768;2023-06-10T00:28:19;15.24;77.39
69543;SHT31;56762;49.494;11.768;2023-06-10T00:30:48;15.23;77.29
69543;SHT31;56762;49.494;11.768;2023-06-10T00:33:16;15.18;77.42
69543;SHT31;56762;49.494;11.768;2023-06-10T00:35:44;15.17;77.14
69543;SHT31;56762;49.494;11.768;2023-06-10T00:38:13;15.12;77.70
69543;SHT31;56762;49.494;11.768;2023-06-10T00:40:41;15.08;77.69
69543;SHT31;56762;49.494;11.768;2023-06-10T00:43:09;15.07;77.87
69543;SHT31;56762;49.494;11.768;2023-06-10T00:45:37;15.08;77.98
69543;SHT31;56762;49.494;11.768;2023-06-10T00:48:06;15.07;78.21
69543;SHT31;56762;49.494;11.768;2023-06-10T00:50:35;15.04;78.45
69543;SHT31;56762;49.494;11.768;2023-06-10T00:53:05;15.08;78.15
69543;SHT31;56762;49.494;11.768;2023-06-10T00:55:34;15.10;77.93
69543;SHT31;56762;49.494;11.768;2023-06-10T00:58:03;15.06;77.95
69543;SHT31;56762;49.494;11.768;2023-06-10T01:00:30;15.06;78.00
69543;SHT31;56762;49.494;11.768;2023-06-10T01:02:58;15.06;77.77
69543;SHT31;56762;49.494;11.768;2023-06-10T01:05:28;15.01;78.12
69543;SHT31;56762;49.494;11.768;2023-06-10T01:08:01;14.97;78.49
69543;SHT31;56762;49.494;11.768;2023-06-10T01:10:33;14.93;78.55
69543;SHT31;56762;49.494;11.768;2023-06-10T01:13:05;14.90;78.82
69543;SHT31;56762;49.494;11.768;2023-06-10T01:15:35;14.90;78.78
69543;SHT31;56762;49.494;11.768;2023-06-10T01:18:05;14.96;78.71
69543;SHT31;56762;49.494;11.768;2023-06-10T01:20:37;14.97;78.25
69543;SHT31;56762;49.494;11.768;2023-06-10T01:23:10;14.98;78.31
69543;SHT31;56762;49.494;11.768;2023-06-10T01:25:39;15.00;78.50
69543;SHT31;56762;49.494;11.768;2023-06-10T01:28:14;14.94;78.50
69543;SHT31;56762;49.494;11.768;2023-06-10T01:30:46;14.91;78.66
69543;SHT31;56762;49.494;11.768;2023-06-10T01:33:20;14.83;78.32
69543;SHT31;56762;49.494;11.768;2023-06-10T01:35:52;14.80;78.52
69543;SHT31;56762;49.494;11.768;2023-06-10T01:38:23;14.77;78.79
69543;SHT31;56762;49.494;11.768;2023-06-10T01:40:53;14.75;78.91
69543;SHT31;56762;49.494;11.768;2023-06-10T01:43:23;14.75;78.80
69543;SHT31;56762;49.494;11.768;2023-06-10T01:45:50;14.72;78.94
69543;SHT31;56762;49.494;11.768;2023-06-10T01:48:18;14.69;79.02
69543;SHT31;56762;49.494;11.768;2023-06-10T01:50:46;14.70;78.90
69543;SHT31;56762;49.494;11.768;2023-06-10T01:53:14;14.70;78.73
69543;SHT31;56762;49.494;11.768;2023-06-10T01:55:43;14.73;78.65
69543;SHT31;56762;49.494;11.768;2023-06-10T01:58:10;14.75;78.56
69543;SHT31;56762;49.494;11.768;2023-06-10T02:00:38;14.72;78.52
69543;SHT31;56762;49.494;11.768;2023-06-10T02:03:06;14.75;78.59
69543;SHT31;56762;49.494;11.768;2023-06-10T02:05:34;14.75;78.66
69543;SHT31;56762;49.494;11.768;2023-06-10T02:08:02;14.73;78.68
69543;SHT31;56762;49.494;11.768;2023-06-10T02:10:30;14.73;78.78
69543;SHT31;56762;49.494;11.768;2023-06-10T02:12:59;14.76;78.78
69543;SHT31;56762;49.494;11.768;2023-06-10T02:15:27;14.73;78.78
69543;SHT31;56762;49.494;11.768;2023-06-10T02:17:55;14.70;78.67
69543;SHT31;56762;49.494;11.768;2023-06-10T02:20:24;14.73;78.66
69543;SHT31;56762;49.494;11.768;2023-06-10T02:22:52;14.70;78.68
69543;SHT31;56762;49.494;11.768;2023-06-10T02:25:20;14.69;78.62
69543;SHT31;56762;49.494;11.768;2023-06-10T02:27:48;14.66;78.83
69543;SHT31;56762;49.494;11.768;2023-06-10T02:30:17;14.66;78.97
69543;SHT31;56762;49.494;11.768;2023-06-10T02:32:45;14.63;79.11
69543;SHT31;56762;49.494;11.768;2023-06-10T02:35:15;14.63;79.19
69543;SHT31;56762;49.494;11.768;2023-06-10T02:37:44;14.60;79.17
69543;SHT31;56762;49.494;11.768;2023-06-10T02:40:11;14.59;79.07
69543;SHT31;56762;49.494;11.768;2023-06-10T02:42:39;14.58;79.07
69543;SHT31;56762;49.494;11.768;2023-06-10T02:45:08;14.60;79.25
69543;SHT31;56762;49.494;11.768;2023-06-10T02:47:38;14.55;79.22
69543;SHT31;56762;49.494;11.768;2023-06-10T02:50:07;14.58;79.06
69543;SHT31;56762;49.494;11.768;2023-06-10T02:52:35;14.56;79.21
69543;SHT31;56762;49.494;11.768;2023-06-10T02:55:03;14.56;79.30
69543;SHT31;56762;49.494;11.768;2023-06-10T02:57:32;14.58;79.37
69543;SHT31;56762;49.494;11.768;2023-06-10T03:00:00;14.56;79.49
69543;SHT31;56762;49.494;11.768;2023-06-10T03:02:38;14.59;79.43
69543;SHT31;56762;49.494;11.768;2023-06-10T03:05:06;14.59;79.24
69543;SHT31;56762;49.494;11.768;2023-06-10T03:07:37;14.59;79.36
69543;SHT31;56762;49.494;11.768;2023-06-10T03:10:06;14.59;79.25
69543;SHT31;56762;49.494;11.768;2023-06-10T03:12:34;14.58;78.99
69543;SHT31;56762;49.494;11.768;2023-06-10T03:15:02;14.58;79.03
69543;SHT31;56762;49.494;11.768;2023-06-10T03:17:30;14.56;79.02
69543;SHT31;56762;49.494;11.768;2023-06-10T03:19:59;14.53;79.12
69543;SHT31;56762;49.494;11.768;2023-06-10T03:22:27;14.52;79.31
69543;SHT31;56762;49.494;11.768;2023-06-10T03:24:55;14.53;79.10
69543;SHT31;56762;49.494;11.768;2023-06-10T03:27:23;14.52;79.06
69543;SHT31;56762;49.494;11.768;2023-06-10T03:29:55;14.52;79.12
69543;SHT31;56762;49.494;11.768;2023-06-10T03:32:23;14.50;79.16
69543;SHT31;56762;49.494;11.768;2023-06-10T03:34:51;14.52;79.24
69543;SHT31;56762;49.494;11.768;2023-06-10T03:37:25;14.49;79.44
69543;SHT31;56762;49.494;11.768;2023-06-10T03:39:53;14.52;79.33
69543;SHT31;56762;49.494;11.768;2023-06-10T03:42:21;14.49;79.54
69543;SHT31;56762;49.494;11.768;2023-06-10T03:44:49;14.55;79.51
69543;SHT31;56762;49.494;11.768;2023-06-10T03:47:17;14.58;79.45
69543;SHT31;56762;49.494;11.768;2023-06-10T03:49:45;14.58;79.90
69543;SHT31;56762;49.494;11.768;2023-06-10T03:52:13;14.60;80.25
69543;SHT31;56762;49.494;11.768;2023-06-10T03:54:42;14.63;80.24
69543;SHT31;56762;49.494;11.768;2023-06-10T03:57:10;14.72;80.54
69543;SHT31;56762;49.494;11.768;2023-06-10T03:59:38;14.77;79.94
69543;SHT31;56762;49.494;11.768;2023-06-10T04:02:06;14.87;80.17
69543;SHT31;56762;49.494;11.768;2023-06-10T04:04:35;14.96;79.52
69543;SHT31;56762;49.494;11.768;2023-06-10T04:07:04;15.04;78.74
69543;SHT31;56762;49.494;11.768;2023-06-10T04:09:33;15.16;78.73
69543;SHT31;56762;49.494;11.768;2023-06-10T04:12:02;15.24;78.76
69543;SHT31;56762;49.494;11.768;2023-06-10T04:14:32;15.28;77.74
69543;SHT31;56762;49.494;11.768;2023-06-10T04:17:00;15.35;77.43
69543;SHT31;56762;49.494;11.768;2023-06-10T04:19:28;15.44;77.36
69543;SHT31;56762;49.494;11.768;2023-06-10T04:21:57;15.49;77.24
69543;SHT31;56762;49.494;11.768;2023-06-10T04:24:25;15.61;76.91
69543;SHT31;56762;49.494;11.768;2023-06-10T04:26:53;15.66;76.41
69543;SHT31;56762;49.494;11.768;2023-06-10T04:29:22;15.77;76.25
69543;SHT31;56762;49.494;11.768;2023-06-10T04:31:50;15.82;76.10
69543;SHT31;56762;49.494;11.768;2023-06-10T04:34:19;15.86;76.00
69543;SHT31;56762;49.494;11.768;2023-06-10T04:36:47;15.90;75.96
69543;SHT31;56762;49.494;11.768;2023-06-10T04:39:17;15.96;76.14
69543;SHT31;56762;49.494;11.768;2023-06-10T04:41:46;16.06;76.20
69543;SHT31;56762;49.494;11.768;2023-06-10T04:44:14;16.14;76.28
69543;SHT31;56762;49.494;11.768;2023-06-10T04:46:43;16.21;75.92
69543;SHT31;56762;49.494;11.768;2023-06-10T04:49:12;16.27;75.90
69543;SHT31;56762;49.494;11.768;2023-06-10T04:51:41;16.39;75.69
69543;SHT31;56762;49.494;11.768;2023-06-10T04:54:09;16.43;75.73
69543;SHT31;56762;49.494;11.768;2023-06-10T04:56:37;16.53;75.74
69543;SHT31;56762;49.494;11.768;2023-06-10T04:59:05;16.58;75.64
69543;SHT31;56762;49.494;11.768;2023-06-10T05:01:33;16.72;75.28
69543;SHT31;56762;49.494;11.768;2023-06-10T05:04:02;16.79;74.93
69543;SHT31;56762;49.494;11.768;2023-06-10T05:06:31;16.89;75.02
69543;SHT31;56762;49.494;11.768;2023-06-10T05:08:59;17.01;74.97
69543;SHT31;56762;49.494;11.768;2023-06-10T05:11:27;17.11;74.55
69543;SHT31;56762;49.494;11.768;2023-06-10T05:13:55;17.18;74.20
69543;SHT31;56762;49.494;11.768;2023-06-10T05:16:22;17.28;73.95
69543;SHT31;56762;49.494;11.768;2023-06-10T05:18:50;17.36;73.65
69543;SHT31;56762;49.494;11.768;2023-06-10T05:21:20;17.47;73.86
69543;SHT31;56762;49.494;11.768;2023-06-10T05:23:48;17.53;73.50
69543;SHT31;56762;49.494;11.768;2023-06-10T05:26:15;17.63;73.55
69543;SHT31;56762;49.494;11.768;2023-06-10T05:28:44;17.83;73.26
69543;SHT31;56762;49.494;11.768;2023-06-10T05:31:11;17.97;72.90
69543;SHT31;56762;49.494;11.768;2023-06-10T05:33:39;18.11;72.29
69543;SHT31;56762;49.494;11.768;2023-06-10T05:36:07;18.20;72.18
69543;SHT31;56762;49.494;11.768;2023-06-10T05:38:37;18.29;72.40
69543;SHT31;56762;49.494;11.768;2023-06-10T05:41:05;18.37;71.03
69543;SHT31;56762;49.494;11.768;2023-06-10T05:43:33;18.44;70.65
69543;SHT31;56762;49.494;11.768;2023-06-10T05:46:00;18.48;71.07
69543;SHT31;56762;49.494;11.768;2023-06-10T05:48:29;18.56;72.30
69543;SHT31;56762;49.494;11.768;2023-06-10T05:50:57;18.65;70.16
69543;SHT31;56762;49.494;11.768;2023-06-10T05:53:24;18.76;70.46
69543;SHT31;56762;49.494;11.768;2023-06-10T05:55:54;18.92;70.91
69543;SHT31;56762;49.494;11.768;2023-06-10T05:58:24;19.09;70.72
69543;SHT31;56762;49.494;11.768;2023-06-10T06:00:51;19.21;69.80
69543;SHT31;56762;49.494;11.768;2023-06-10T06:03:22;19.30;68.53
69543;SHT31;56762;49.494;11.768;2023-06-10T06:05:50;19.48;68.28
69543;SHT31;56762;49.494;11.768;2023-06-10T06:08:17;19.55;67.07
69543;SHT31;56762;49.494;11.768;2023-06-10T06:10:46;19.60;67.10
69543;SHT31;56762;49.494;11.768;2023-06-10T06:13:16;19.72;67.16
69543;SHT31;56762;49.494;11.768;2023-06-10T06:15:44;19.78;67.39
69543;SHT31;56762;49.494;11.768;2023-06-10T06:18:12;19.82;65.91
69543;SHT31;56762;49.494;11.768;2023-06-10T06:20:40;19.83;66.23
69543;SHT31;56762;49.494;11.768;2023-06-10T06:23:08;19.92;66.03
69543;SHT31;56762;49.494;11.768;2023-06-10T06:25:36;19.93;65.79
69543;SHT31;56762;49.494;11.768;2023-06-10T06:28:06;19.91;65.99
69543;SHT31;56762;49.494;11.768;2023-06-10T06:30:35;19.98;66.72
69543;SHT31;56762;49.494;11.768;2023-06-10T06:33:03;20.06;66.45
69543;SHT31;56762;49.494;11.768;2023-06-10T06:35:31;20.13;65.26
69543;SHT31;56762;49.494;11.768;2023-06-10T06:37:59;20.15;64.60
69543;SHT31;56762;49.494;11.768;2023-06-10T06:40:28;20.29;65.48
69543;SHT31;56762;49.494;11.768;2023-06-10T06:42:55;20.41;64.73
69543;SHT31;56762;49.494;11.768;2023-06-10T06:45:23;20.56;65.83
69543;SHT31;56762;49.494;11.768;2023-06-10T06:47:53;20.64;64.02
69543;SHT31;56762;49.494;11.768;2023-06-10T06:50:22;20.60;64.11
69543;SHT31;56762;49.494;11.768;2023-06-10T06:52:50;20.73;63.88
69543;SHT31;56762;49.494;11.768;2023-06-10T06:55:18;20.77;63.90
69543;SHT31;56762;49.494;11.768;2023-06-10T06:57:45;20.88;64.16
69543;SHT31;56762;49.494;11.768;2023-06-10T07:00:14;20.91;63.18
69543;SHT31;56762;49.494;11.768;2023-06-10T07:02:42;20.98;62.62
69543;SHT31;56762;49.494;11.768;2023-06-10T07:05:11;21.14;62.16
69543;SHT31;56762;49.494;11.768;2023-06-10T07:07:39;21.15;62.18
69543;SHT31;56762;49.494;11.768;2023-06-10T07:10:08;21.21;62.57
69543;SHT31;56762;49.494;11.768;2023-06-10T07:12:36;21.27;61.61
69543;SHT31;56762;49.494;11.768;2023-06-10T07:15:04;21.27;61.48
69543;SHT31;56762;49.494;11.768;2023-06-10T07:17:33;21.28;62.72
69543;SHT31;56762;49.494;11.768;2023-06-10T07:20:01;21.28;61.87
69543;SHT31;56762;49.494;11.768;2023-06-10T07:22:31;21.15;61.86
69543;SHT31;56762;49.494;11.768;2023-06-10T07:24:59;21.10;63.48
69543;SHT31;56762;49.494;11.768;2023-06-10T07:27:26;21.10;63.43
69543;SHT31;56762;49.494;11.768;2023-06-10T07:29:54;21.00;62.14
69543;SHT31;56762;49.494;11.768;2023-06-10T07:32:23;20.97;62.77
69543;SHT31;56762;49.494;11.768;2023-06-10T07:34:50;20.97;62.62
69543;SHT31;56762;49.494;11.768;2023-06-10T07:37:19;20.85;63.26
69543;SHT31;56762;49.494;11.768;2023-06-10T07:39:48;20.80;63.42
69543;SHT31;56762;49.494;11.768;2023-06-10T07:42:17;20.74;63.08
69543;SHT31;56762;49.494;11.768;2023-06-10T07:44:45;20.67;63.64
69543;SHT31;56762;49.494;11.768;2023-06-10T07:47:14;20.66;63.30
69543;SHT31;56762;49.494;11.768;2023-06-10T07:49:43;20.64;63.84
69543;SHT31;56762;49.494;11.768;2023-06-10T07:52:11;20.63;65.14
69543;SHT31;56762;49.494;11.768;2023-06-10T07:54:39;20.66;64.35
69543;SHT31;56762;49.494;11.768;2023-06-10T07:57:09;20.61;63.39
69543;SHT31;56762;49.494;11.768;2023-06-10T07:59:37;20.60;63.64
69543;SHT31;56762;49.494;11.768;2023-06-10T08:02:05;20.63;63.32
69543;SHT31;56762;49.494;11.768;2023-06-10T08:04:33;20.66;62.20
69543;SHT31;56762;49.494;11.768;2023-06-10T08:07:02;20.57;62.55
69543;SHT31;56762;49.494;11.768;2023-06-10T08:09:30;20.59;63.42
69543;SHT31;56762;49.494;11.768;2023-06-10T08:11:59;20.61;64.07
69543;SHT31;56762;49.494;11.768;2023-06-10T08:14:29;20.71;62.77
69543;SHT31;56762;49.494;11.768;2023-06-10T08:16:57;20.70;62.89
69543;SHT31;56762;49.494;11.768;2023-06-10T08:19:25;20.69;62.99
69543;SHT31;56762;49.494;11.768;2023-06-10T08:21:53;20.67;63.18
69543;SHT31;56762;49.494;11.768;2023-06-10T08:24:21;20.67;63.48
69543;SHT31;56762;49.494;11.768;2023-06-10T08:26:50;20.79;63.01
69543;SHT31;56762;49.494;11.768;2023-06-10T08:29:18;20.74;62.59
69543;SHT31;56762;49.494;11.768;2023-06-10T08:31:47;20.70;63.40
69543;SHT31;56762;49.494;11.768;2023-06-10T08:34:15;20.71;63.14
69543;SHT31;56762;49.494;11.768;2023-06-10T08:36:44;20.67;63.62
69543;SHT31;56762;49.494;11.768;2023-06-10T08:39:12;20.70;64.46
69543;SHT31;56762;49.494;11.768;2023-06-10T08:41:43;20.71;64.27
69543;SHT31;56762;49.494;11.768;2023-06-10T08:44:16;20.79;63.65
69543;SHT31;56762;49.494;11.768;2023-06-10T08:46:46;21.02;62.68
69543;SHT31;56762;49.494;11.768;2023-06-10T08:49:19;21.00;62.25
69543;SHT31;56762;49.494;11.768;2023-06-10T08:51:50;21.01;62.31
69543;SHT31;56762;49.494;11.768;2023-06-10T08:54:21;21.05;63.00
69543;SHT31;56762;49.494;11.768;2023-06-10T08:56:51;21.17;63.73
69543;SHT31;56762;49.494;11.768;2023-06-10T08:59:20;21.19;61.68
69543;SHT31;56762;49.494;11.768;2023-06-10T09:01:50;21.31;62.02
69543;SHT31;56762;49.494;11.768;2023-06-10T09:04:21;21.27;62.06
69543;SHT31;56762;49.494;11.768;2023-06-10T09:06:49;21.22;62.52
69543;SHT31;56762;49.494;11.768;2023-06-10T09:09:18;21.21;62.89
69543;SHT31;56762;49.494;11.768;2023-06-10T09:11:47;21.18;62.07
69543;SHT31;56762;49.494;11.768;2023-06-10T09:14:18;21.19;62.33
69543;SHT31;56762;49.494;11.768;2023-06-10T09:16:46;21.18;61.98
69543;SHT31;56762;49.494;11.768;2023-06-10T09:19:15;21.25;61.96
69543;SHT31;56762;49.494;11.768;2023-06-10T09:21:50;21.31;61.38
69543;SHT31;56762;49.494;11.768;2023-06-10T09:24:20;21.28;62.61
69543;SHT31;56762;49.494;11.768;2023-06-10T09:26:50;21.39;61.34
69543;SHT31;56762;49.494;11.768;2023-06-10T09:29:18;21.50;60.70
69543;SHT31;56762;49.494;11.768;2023-06-10T09:31:49;21.45;60.70
69543;SHT31;56762;49.494;11.768;2023-06-10T09:34:17;21.38;60.31
69543;SHT31;56762;49.494;11.768;2023-06-10T09:36:55;21.38;61.40
69543;SHT31;56762;49.494;11.768;2023-06-10T09:39:23;21.46;59.46
69543;SHT31;56762;49.494;11.768;2023-06-10T09:41:51;21.41;59.50
69543;SHT31;56762;49.494;11.768;2023-06-10T09:44:21;21.31;60.14
69543;SHT31;56762;49.494;11.768;2023-06-10T09:46:51;21.27;61.07
69543;SHT31;56762;49.494;11.768;2023-06-10T09:49:21;21.25;61.01
69543;SHT31;56762;49.494;11.768;2023-06-10T09:51:50;21.29;60.67
69543;SHT31;56762;49.494;11.768;2023-06-10T09:54:20;21.37;60.65
69543;SHT31;56762;49.494;11.768;2023-06-10T09:56:49;21.46;60.54
69543;SHT31;56762;49.494;11.768;2023-06-10T09:59:28;21.56;60.20
69543;SHT31;56762;49.494;11.768;2023-06-10T10:01:58;21.46;61.06
69543;SHT31;56762;49.494;11.768;2023-06-10T10:04:27;21.41;60.12
69543;SHT31;56762;49.494;11.768;2023-06-10T10:06:56;21.34;59.85
69543;SHT31;56762;49.494;11.768;2023-06-10T10:09:27;21.31;60.32
69543;SHT31;56762;49.494;11.768;2023-06-10T10:11:55;21.35;60.43
69543;SHT31;56762;49.494;11.768;2023-06-10T10:14:27;21.34;60.48
69543;SHT31;56762;49.494;11.768;2023-06-10T10:16:56;21.34;61.56
69543;SHT31;56762;49.494;11.768;2023-06-10T10:19:28;21.28;60.87
69543;SHT31;56762;49.494;11.768;2023-06-10T10:22:03;21.27;60.83
69543;SHT31;56762;49.494;11.768;2023-06-10T10:24:36;21.25;61.56
69543;SHT31;56762;49.494;11.768;2023-06-10T10:27:14;21.31;60.70
69543;SHT31;56762;49.494;11.768;2023-06-10T10:29:47;21.29;60.58
69543;SHT31;56762;49.494;11.768;2023-06-10T10:32:18;21.35;60.98
69543;SHT31;56762;49.494;11.768;2023-06-10T10:34:53;21.37;60.39
69543;SHT31;56762;49.494;11.768;2023-06-10T10:37:25;21.50;59.74
69543;SHT31;56762;49.494;11.768;2023-06-10T10:39:55;21.58;59.53
69543;SHT31;56762;49.494;11.768;2023-06-10T10:42:24;21.66;60.07
69543;SHT31;56762;49.494;11.768;2023-06-10T10:44:54;21.85;59.29
69543;SHT31;56762;49.494;11.768;2023-06-10T10:47:27;21.90;59.16
69543;SHT31;56762;49.494;11.768;2023-06-10T10:49:56;21.86;60.83
69543;SHT31;56762;49.494;11.768;2023-06-10T10:52:48;21.92;57.80
69543;SHT31;56762;49.494;11.768;2023-06-10T10:55:22;21.94;57.20
69543;SHT31;56762;49.494;11.768;2023-06-10T10:58:03;22.16;57.45
69543;SHT31;56762;49.494;11.768;2023-06-10T11:00:32;22.13;58.16
69543;SHT31;56762;49.494;11.768;2023-06-10T11:03:06;22.03;57.40
69543;SHT31;56762;49.494;11.768;2023-06-10T11:05:38;22.00;58.02
69543;SHT31;56762;49.494;11.768;2023-06-10T11:08:08;22.11;57.13
69543;SHT31;56762;49.494;11.768;2023-06-10T11:10:39;22.14;57.13
69543;SHT31;56762;49.494;11.768;2023-06-10T11:13:08;22.20;58.27
69543;SHT31;56762;49.494;11.768;2023-06-10T11:15:43;22.28;57.05
69543;SHT31;56762;49.494;11.768;2023-06-10T11:18:23;22.28;55.76
69543;SHT31;56762;49.494;11.768;2023-06-10T11:20:54;22.31;55.51
69543;SHT31;56762;49.494;11.768;2023-06-10T11:23:30;22.44;56.20
69543;SHT31;56762;49.494;11.768;2023-06-10T11:26:20;22.37;56.30
69543;SHT31;56762;49.494;11.768;2023-06-10T11:29:08;22.41;56.88
69543;SHT31;56762;49.494;11.768;2023-06-10T11:31:44;22.45;56.90
69543;SHT31;56762;49.494;11.768;2023-06-10T11:34:14;22.44;56.62
69543;SHT31;56762;49.494;11.768;2023-06-10T11:36:43;22.47;56.94
69543;SHT31;56762;49.494;11.768;2023-06-10T11:39:20;22.54;56.75
69543;SHT31;56762;49.494;11.768;2023-06-10T11:41:51;22.47;56.77
69543;SHT31;56762;49.494;11.768;2023-06-10T11:44:19;22.51;57.21
69543;SHT31;56762;49.494;11.768;2023-06-10T11:46:49;22.51;56.16
69543;SHT31;56762;49.494;11.768;2023-06-10T11:49:20;22.45;56.29
69543;SHT31;56762;49.494;11.768;2023-06-10T11:51:48;22.41;56.16
69543;SHT31;56762;49.494;11.768;2023-06-10T11:54:18;22.41;55.81
69543;SHT31;56762;49.494;11.768;2023-06-10T11:56:57;22.43;56.02
69543;SHT31;56762;49.494;11.768;2023-06-10T11:59:27;22.37;56.96
69543;SHT31;56762;49.494;11.768;2023-06-10T12:01:56;22.52;53.55
69543;SHT31;56762;49.494;11.768;2023-06-10T12:04:24;22.57;54.21
69543;SHT31;56762;49.494;11.768;2023-06-10T12:06:53;22.55;56.37
69543;SHT31;56762;49.494;11.768;2023-06-10T12:09:27;22.57;55.24
69543;SHT31;56762;49.494;11.768;2023-06-10T12:12:02;22.54;55.79
69543;SHT31;56762;49.494;11.768;2023-06-10T12:14:54;22.58;53.98
69543;SHT31;56762;49.494;11.768;2023-06-10T12:17:36;22.57;53.60
69543;SHT31;56762;49.494;11.768;2023-06-10T12:20:07;22.55;52.88
69543;SHT31;56762;49.494;11.768;2023-06-10T12:22:36;22.48;53.63
69543;SHT31;56762;49.494;11.768;2023-06-10T12:25:07;22.48;54.91
69543;SHT31;56762;49.494;11.768;2023-06-10T12:27:39;22.44;55.45
69543;SHT31;56762;49.494;11.768;2023-06-10T12:30:08;22.41;55.97
69543;SHT31;56762;49.494;11.768;2023-06-10T12:32:38;22.38;57.30
69543;SHT31;56762;49.494;11.768;2023-06-10T12:35:08;22.34;57.35
69543;SHT31;56762;49.494;11.768;2023-06-10T12:37:37;22.33;57.94
69543;SHT31;56762;49.494;11.768;2023-06-10T12:40:09;22.30;56.47
69543;SHT31;56762;49.494;11.768;2023-06-10T12:42:40;22.27;56.58
69543;SHT31;56762;49.494;11.768;2023-06-10T12:45:09;22.21;56.22
69543;SHT31;56762;49.494;11.768;2023-06-10T12:47:39;22.16;56.79
69543;SHT31;56762;49.494;11.768;2023-06-10T12:50:09;22.16;56.04
69543;SHT31;56762;49.494;11.768;2023-06-10T12:52:39;22.20;55.33
69543;SHT31;56762;49.494;11.768;2023-06-10T12:55:08;22.21;55.30
69543;SHT31;56762;49.494;11.768;2023-06-10T12:57:37;22.28;54.84
69543;SHT31;56762;49.494;11.768;2023-06-10T13:00:18;22.38;55.30
69543;SHT31;56762;49.494;11.768;2023-06-10T13:02:48;22.45;54.20
69543;SHT31;56762;49.494;11.768;2023-06-10T13:05:16;22.69;53.85
69543;SHT31;56762;49.494;11.768;2023-06-10T13:07:48;22.69;52.49
69543;SHT31;56762;49.494;11.768;2023-06-10T13:10:16;22.67;53.89
69543;SHT31;56762;49.494;11.768;2023-06-10T13:12:47;22.82;51.46
69543;SHT31;56762;49.494;11.768;2023-06-10T13:15:17;22.91;51.76
69543;SHT31;56762;49.494;11.768;2023-06-10T13:17:46;22.87;52.50
69543;SHT31;56762;49.494;11.768;2023-06-10T13:20:17;22.98;53.25
69543;SHT31;56762;49.494;11.768;2023-06-10T13:22:45;23.13;52.11
69543;SHT31;56762;49.494;11.768;2023-06-10T13:25:14;23.09;52.17
69543;SHT31;56762;49.494;11.768;2023-06-10T13:27:42;23.05;52.14
69543;SHT31;56762;49.494;11.768;2023-06-10T13:30:14;23.05;52.82
69543;SHT31;56762;49.494;11.768;2023-06-10T13:32:48;23.08;53.28
69543;SHT31;56762;49.494;11.768;2023-06-10T13:35:16;23.19;51.91
69543;SHT31;56762;49.494;11.768;2023-06-10T13:37:44;23.10;52.09
69543;SHT31;56762;49.494;11.768;2023-06-10T13:40:15;23.22;51.48
69543;SHT31;56762;49.494;11.768;2023-06-10T13:42:43;23.15;51.64
69543;SHT31;56762;49.494;11.768;2023-06-10T13:45:11;23.13;52.56
69543;SHT31;56762;49.494;11.768;2023-06-10T13:47:40;23.10;53.67
69543;SHT31;56762;49.494;11.768;2023-06-10T13:50:10;23.03;54.86
69543;SHT31;56762;49.494;11.768;2023-06-10T13:52:41;23.10;56.07
69543;SHT31;56762;49.494;11.768;2023-06-10T13:55:12;23.02;56.62
69543;SHT31;56762;49.494;11.768;2023-06-10T13:57:40;23.00;56.80
69543;SHT31;56762;49.494;11.768;2023-06-10T14:00:09;23.05;56.23
69543;SHT31;56762;49.494;11.768;2023-06-10T14:02:37;23.06;56.53
69543;SHT31;56762;49.494;11.768;2023-06-10T14:05:06;23.05;56.19
69543;SHT31;56762;49.494;11.768;2023-06-10T14:07:38;23.08;56.05
69543;SHT31;56762;49.494;11.768;2023-06-10T14:10:10;23.15;54.44
69543;SHT31;56762;49.494;11.768;2023-06-10T14:12:41;23.10;53.66
69543;SHT31;56762;49.494;11.768;2023-06-10T14:15:10;23.00;52.78
69543;SHT31;56762;49.494;11.768;2023-06-10T14:17:38;23.08;53.67
69543;SHT31;56762;49.494;11.768;2023-06-10T14:20:09;22.87;54.53
69543;SHT31;56762;49.494;11.768;2023-06-10T14:22:38;22.85;54.43
69543;SHT31;56762;49.494;11.768;2023-06-10T14:25:07;22.78;55.81
69543;SHT31;56762;49.494;11.768;2023-06-10T14:27:36;22.82;55.99
69543;SHT31;56762;49.494;11.768;2023-06-10T14:30:05;22.84;56.59
69543;SHT31;56762;49.494;11.768;2023-06-10T14:32:37;22.81;55.66
69543;SHT31;56762;49.494;11.768;2023-06-10T14:35:07;22.81;56.28
69543;SHT31;56762;49.494;11.768;2023-06-10T14:37:36;22.87;57.01
69543;SHT31;56762;49.494;11.768;2023-06-10T14:40:07;22.88;56.90
69543;SHT31;56762;49.494;11.768;2023-06-10T14:42:38;22.91;57.56
69543;SHT31;56762;49.494;11.768;2023-06-10T14:45:08;22.88;55.24
69543;SHT31;56762;49.494;11.768;2023-06-10T14:47:37;23.02;53.76
69543;SHT31;56762;49.494;11.768;2023-06-10T14:50:05;23.12;53.13
69543;SHT31;56762;49.494;11.768;2023-06-10T14:52:34;23.13;53.11
69543;SHT31;56762;49.494;11.768;2023-06-10T14:55:02;23.16;53.47
69543;SHT31;56762;49.494;11.768;2023-06-10T14:57:32;23.26;53.37
69543;SHT31;56762;49.494;11.768;2023-06-10T15:00:03;23.29;52.91
69543;SHT31;56762;49.494;11.768;2023-06-10T15:02:31;23.20;53.74
69543;SHT31;56762;49.494;11.768;2023-06-10T15:04:59;23.31;54.60
69543;SHT31;56762;49.494;11.768;2023-06-10T15:07:27;23.24;55.35
69543;SHT31;56762;49.494;11.768;2023-06-10T15:09:55;23.12;55.21
69543;SHT31;56762;49.494;11.768;2023-06-10T15:12:23;23.12;55.58
69543;SHT31;56762;49.494;11.768;2023-06-10T15:14:53;23.05;55.41
69543;SHT31;56762;49.494;11.768;2023-06-10T15:17:21;22.98;55.98
69543;SHT31;56762;49.494;11.768;2023-06-10T15:19:49;22.91;55.68
69543;SHT31;56762;49.494;11.768;2023-06-10T15:22:17;22.88;54.87
69543;SHT31;56762;49.494;11.768;2023-06-10T15:24:45;22.79;54.49
69543;SHT31;56762;49.494;11.768;2023-06-10T15:27:13;22.73;55.11
69543;SHT31;56762;49.494;11.768;2023-06-10T15:29:42;22.71;54.96